createdAt,value
2018-09-12T00:01:45.010Z,100627.48
2018-09-12T00:06:28.618Z,100621.88
2018-09-12T00:11:12.020Z,100618.51
2018-09-12T00:15:55.697Z,100627.28
2018-09-12T00:20:39.228Z,100622.62
2018-09-12T00:25:22.945Z,100618.27
2018-09-12T00:30:06.268Z,100608.58
2018-09-12T00:34:53.445Z,100605.05
2018-09-12T00:39:36.919Z,100604.25
2018-09-12T00:44:20.392Z,100599.24
2018-09-12T00:49:04.067Z,100596.59
2018-09-12T00:53:47.560Z,100600.13
2018-09-12T00:58:31.124Z,100598.80
2018-09-12T01:03:14.634Z,100610.88
2018-09-12T01:07:58.009Z,100615.39
2018-09-12T01:12:41.422Z,100605.81
2018-09-12T01:17:26.007Z,100601.41
2018-09-12T01:22:11.028Z,100591.33
2018-09-12T01:26:54.773Z,100581.77
2018-09-12T01:31:38.312Z,100594.69
2018-09-12T01:36:22.840Z,100583.54
2018-09-12T01:41:06.358Z,100586.67
2018-09-12T01:45:50.866Z,100588.02
2018-09-12T01:50:34.275Z,100585.27
2018-09-12T01:55:21.562Z,100584.03
2018-09-12T02:00:05.596Z,100590.49
2018-09-12T02:04:52.118Z,100587.93
2018-09-12T02:09:35.644Z,100578.61
2018-09-12T02:14:19.057Z,100584.67
2018-09-12T02:19:03.254Z,100580.91
2018-09-12T02:23:46.704Z,100571.65
2018-09-12T02:28:30.414Z,100561.56
2018-09-12T02:33:13.852Z,100561.19
2018-09-12T02:38:01.034Z,100570.42
2018-09-12T02:42:44.487Z,100564.05
2018-09-12T02:47:33.365Z,100571.72
2018-09-12T02:52:16.879Z,100568.59
2018-09-12T02:57:00.520Z,100571.07
2018-09-12T03:01:43.925Z,100569.44
2018-09-12T03:06:27.554Z,100579.60
2018-09-12T03:11:11.070Z,100582.38
2018-09-12T03:15:57.529Z,100574.08
2018-09-12T03:20:41.010Z,100591.84
2018-09-12T03:25:24.998Z,100586.50
2018-09-12T03:30:08.416Z,100590.30
2018-09-12T03:34:53.084Z,100596.09
2018-09-12T03:39:36.515Z,100607.20
2018-09-12T03:44:21.169Z,100609.70
2018-09-12T03:49:04.735Z,100611.28
2018-09-12T03:53:48.122Z,100627.42
2018-09-12T03:58:31.609Z,100639.66
2018-09-12T04:03:15.039Z,100653.63
2018-09-12T04:07:58.684Z,100655.56
2018-09-12T04:12:42.133Z,100655.65
2018-09-12T04:17:31.438Z,100652.69
2018-09-12T04:22:14.916Z,100652.59
2018-09-12T04:26:58.616Z,100659.28
2018-09-12T04:31:41.921Z,100661.72
2018-09-12T04:36:26.459Z,100655.53
2018-09-12T04:41:09.883Z,100653.63
2018-09-12T04:45:56.380Z,100663.40
2018-09-12T04:50:39.682Z,100662.00
2018-09-12T04:55:23.297Z,100659.25
2018-09-12T05:00:06.756Z,100658.73
2018-09-12T05:04:54.557Z,100661.49
2018-09-12T05:09:38.323Z,100655.33
2018-09-12T05:14:25.349Z,100662.67
2018-09-12T05:19:09.490Z,100659.42
2018-09-12T05:23:53.093Z,100644.83
2018-09-12T05:28:38.246Z,100641.45
2018-09-12T05:33:21.502Z,100639.27
2018-09-12T05:38:06.465Z,100639.08
2018-09-12T05:42:50.521Z,100634.94
2018-09-12T05:47:35.012Z,100635.78
2018-09-12T05:52:18.370Z,100627.53
2018-09-12T05:57:05.377Z,100628.09
2018-09-12T06:01:49.500Z,100637.13
2018-09-12T06:06:36.388Z,100645.69
2018-09-12T06:11:19.755Z,100645.95
2018-09-12T06:16:04.263Z,100649.22
2018-09-12T06:20:47.790Z,100648.25
2018-09-12T06:25:32.323Z,100652.55
2018-09-12T06:30:15.788Z,100655.84
2018-09-12T06:35:00.253Z,100656.70
2018-09-12T06:39:43.751Z,100656.30
2018-09-12T06:44:32.952Z,100663.77
2018-09-12T06:49:16.380Z,100667.56
2018-09-12T06:54:02.692Z,100671.73
2018-09-12T06:58:46.047Z,100666.20
2018-09-12T07:03:32.841Z,100665.45
2018-09-12T07:08:19.970Z,100667.76
2018-09-12T07:13:03.319Z,100672.78
2018-09-12T07:17:49.895Z,100658.69
2018-09-12T07:22:33.478Z,100654.70
2018-09-12T07:27:17.820Z,100656.07
2018-09-12T07:32:01.247Z,100665.78
2018-09-12T07:36:48.411Z,100670.30
2018-09-12T07:41:31.776Z,100660.19
2018-09-12T07:46:18.676Z,100652.56
2018-09-12T07:51:02.220Z,100643.05
2018-09-12T07:55:49.297Z,100647.75
2018-09-12T08:00:32.855Z,100662.95
2018-09-12T08:05:19.730Z,100660.37
2018-09-12T08:10:03.214Z,100650.37
2018-09-12T08:14:50.168Z,100646.96
2018-09-12T08:19:33.748Z,100632.89
2018-09-12T08:24:20.802Z,100638.41
2018-09-12T08:29:04.285Z,100644.14
2018-09-12T08:33:51.328Z,100638.81
2018-09-12T08:38:35.327Z,100642.05
2018-09-12T08:43:19.772Z,100648.62
2018-09-12T08:48:03.393Z,100641.94
2018-09-12T08:52:48.193Z,100638.24
2018-09-12T08:57:31.646Z,100635.48
2018-09-12T09:02:14.997Z,100644.89
2018-09-12T09:06:59.583Z,100642.41
2018-09-12T09:11:43.732Z,100634.94
2018-09-12T09:16:28.070Z,100633.42
2018-09-12T09:21:11.568Z,100625.30
2018-09-12T09:25:56.135Z,100628.59
2018-09-12T09:30:39.528Z,100632.97
2018-09-12T09:35:24.104Z,100627.67
2018-09-12T09:40:08.372Z,100626.04
2018-09-12T09:44:55.195Z,100629.48
2018-09-12T09:49:38.972Z,100613.70
2018-09-12T09:54:22.672Z,100616.84
2018-09-12T09:59:05.874Z,100618.55
2018-09-12T10:03:54.888Z,100619.95
2018-09-12T10:08:43.679Z,100606.44
2018-09-12T10:13:28.320Z,100606.34
2018-09-12T10:18:11.939Z,100608.58
2018-09-12T10:22:55.581Z,100623.28
2018-09-12T10:27:39.303Z,100625.62
2018-09-12T10:32:22.665Z,100629.89
2018-09-12T10:37:11.012Z,100632.21
2018-09-12T10:41:54.341Z,100640.65
2018-09-12T10:46:41.973Z,100639.52
2018-09-12T10:51:25.503Z,100649.05
2018-09-12T10:56:12.154Z,100631.72
2018-09-12T11:00:56.651Z,100638.20
2018-09-12T11:05:45.069Z,100634.81
2018-09-12T11:10:28.699Z,100639.33
2018-09-12T11:15:16.289Z,100635.70
2018-09-12T11:19:59.727Z,100634.55
2018-09-12T11:24:44.522Z,100627.83
2018-09-12T11:29:28.006Z,100632.39
2018-09-12T11:34:15.785Z,100625.13
2018-09-12T11:38:59.128Z,100634.16
2018-09-12T11:43:42.867Z,100635.91
2018-09-12T11:48:26.283Z,100626.45
2018-09-12T11:53:14.294Z,100625.70
2018-09-12T11:57:57.853Z,100621.02
2018-09-12T12:02:41.730Z,100616.50
2018-09-12T12:07:26.584Z,100606.97
2018-09-12T12:12:10.109Z,100599.36
2018-09-12T12:16:55.545Z,100593.59
2018-09-12T12:21:39.136Z,100600.41
2018-09-12T12:26:26.148Z,100603.09
2018-09-12T12:31:09.644Z,100597.95
2018-09-12T12:35:54.244Z,100600.44
2018-09-12T12:40:37.711Z,100610.14
2018-09-12T12:45:22.220Z,100607.92
2018-09-12T12:50:05.820Z,100621.08
2018-09-12T12:54:50.332Z,100616.66
2018-09-12T12:59:34.320Z,100628.99
2018-09-12T13:04:17.855Z,100626.44
2018-09-12T13:09:01.411Z,100624.59
2018-09-12T13:13:46.969Z,100627.57
2018-09-12T13:18:31.717Z,100621.77
2018-09-12T13:23:16.427Z,100612.41
2018-09-12T13:28:00.079Z,100606.41
2018-09-12T13:32:43.389Z,100621.20
2018-09-12T13:37:26.859Z,100613.30
2018-09-12T13:42:10.905Z,100620.26
2018-09-12T13:46:55.368Z,100616.31
2018-09-12T13:51:38.648Z,100611.21
2018-09-12T13:56:35.708Z,100609.27
2018-09-12T14:01:19.209Z,100606.13
2018-09-12T14:06:06.503Z,100600.42
2018-09-12T14:10:49.920Z,100606.31
2018-09-12T14:15:34.251Z,100601.07
2018-09-12T14:20:17.632Z,100600.81
2018-09-12T14:25:01.264Z,100612.09
2018-09-12T14:29:44.623Z,100618.06
2018-09-12T14:34:31.113Z,100618.34
2018-09-12T14:39:14.687Z,100612.08
2018-09-12T14:43:59.156Z,100604.80
2018-09-12T14:48:42.961Z,100608.95
2018-09-12T14:53:26.689Z,100610.24
2018-09-12T14:58:10.271Z,100608.33
2018-09-12T15:02:57.486Z,100605.76
2018-09-12T15:07:40.768Z,100606.36
2018-09-12T15:12:24.235Z,100606.95
2018-09-12T15:17:11.686Z,100611.20
2018-09-12T15:21:55.060Z,100610.72
2018-09-12T15:26:38.659Z,100613.35
2018-09-12T15:31:22.453Z,100608.50
2018-09-12T15:36:09.685Z,100609.47
2018-09-12T15:40:53.089Z,100610.05
2018-09-12T15:45:36.941Z,100609.02
2018-09-12T15:50:22.696Z,100607.33
2018-09-12T15:55:09.535Z,100610.13
2018-09-12T15:59:52.962Z,100606.34
2018-09-12T16:04:40.942Z,100599.33
2018-09-12T16:09:24.385Z,100602.07
2018-09-12T16:14:08.778Z,100605.12
2018-09-12T16:18:58.234Z,100602.93
2018-09-12T16:23:45.635Z,100606.59
2018-09-12T16:28:29.173Z,100604.75
2018-09-12T16:33:16.635Z,100602.86
2018-09-12T16:38:00.037Z,100616.55
2018-09-12T16:42:44.682Z,100614.39
2018-09-12T16:47:28.155Z,100618.17
2018-09-12T16:52:11.489Z,100626.94
2018-09-12T16:56:55.518Z,100624.98
2018-09-12T17:01:38.994Z,100630.45
2018-09-12T17:06:23.450Z,100629.87
2018-09-12T17:11:06.939Z,100624.06
2018-09-12T17:15:51.691Z,100623.95
2018-09-12T17:20:35.683Z,100626.06
2018-09-12T17:25:26.683Z,100616.75
2018-09-12T17:30:10.236Z,100629.89
2018-09-12T17:34:55.410Z,100631.34
2018-09-12T17:39:39.002Z,100627.66
2018-09-12T17:44:22.389Z,100629.00
2018-09-12T17:49:06.223Z,100623.98
2018-09-12T17:53:50.744Z,100637.70
2018-09-12T17:58:42.312Z,100641.52
2018-09-12T18:03:26.818Z,100644.97
2018-09-12T18:08:21.773Z,100643.96
2018-09-12T18:13:06.762Z,100645.03
2018-09-12T18:17:50.201Z,100643.80
2018-09-12T18:22:33.692Z,100662.08
2018-09-12T18:27:17.917Z,100660.86
2018-09-12T18:32:01.388Z,100661.72
2018-09-12T18:36:44.963Z,100661.02
2018-09-12T18:41:29.767Z,100661.55
2018-09-12T18:46:14.192Z,100656.34
2018-09-12T18:50:57.748Z,100648.08
2018-09-12T18:55:44.876Z,100647.02
2018-09-12T19:00:28.981Z,100659.91
2018-09-12T19:05:12.398Z,100655.31
2018-09-12T19:09:55.938Z,100659.91
2018-09-12T19:14:40.444Z,100656.36
2018-09-12T19:19:24.225Z,100658.55
2018-09-12T19:24:07.708Z,100657.80
2018-09-12T19:28:51.285Z,100660.17
2018-09-12T19:33:35.820Z,100656.59
2018-09-12T19:38:19.242Z,100658.33
2018-09-12T19:43:03.347Z,100656.78
2018-09-12T19:47:46.697Z,100663.30
2018-09-12T19:52:30.206Z,100655.97
2018-09-12T19:57:17.193Z,100649.98
2018-09-12T20:02:00.640Z,100643.52
2018-09-12T20:06:43.999Z,100649.73
2018-09-12T20:11:27.456Z,100646.16
2018-09-12T20:16:11.914Z,100648.17
2018-09-12T20:20:55.395Z,100651.41
2018-09-12T20:25:40.741Z,100647.59
2018-09-12T20:30:24.287Z,100645.42
2018-09-12T20:35:09.074Z,100645.60
2018-09-12T20:39:52.494Z,100644.85
2018-09-12T20:44:37.692Z,100647.52
2018-09-12T20:49:20.963Z,100646.70
2018-09-12T20:54:13.311Z,100651.18
2018-09-12T20:58:56.800Z,100645.62
2018-09-12T21:03:40.387Z,100638.20
2018-09-12T21:08:23.695Z,100634.22
2018-09-12T21:13:07.345Z,100633.42
2018-09-12T21:17:51.198Z,100631.84
2018-09-12T21:22:34.593Z,100627.95
2018-09-12T21:27:17.790Z,100622.53
2018-09-12T21:32:02.130Z,100615.64
2018-09-12T21:36:45.597Z,100603.87
2018-09-12T21:41:29.047Z,100596.52
2018-09-12T21:46:12.657Z,100592.27
2018-09-12T21:50:55.933Z,100599.49
2018-09-12T21:55:39.451Z,100591.42
2018-09-12T22:00:22.828Z,100575.81
2018-09-12T22:05:07.312Z,100572.86
2018-09-12T22:09:50.690Z,100572.55
2018-09-12T22:14:34.318Z,100563.20
2018-09-12T22:19:17.780Z,100571.30
2018-09-12T22:24:02.009Z,100569.16
2018-09-12T22:28:45.450Z,100570.06
2018-09-12T22:33:28.931Z,100573.72
2018-09-12T22:38:13.109Z,100577.20
2018-09-12T22:42:56.713Z,100572.41
2018-09-12T22:47:40.075Z,100574.62
2018-09-12T22:52:23.771Z,100573.06
2018-09-12T22:57:07.140Z,100573.41
2018-09-12T23:01:50.641Z,100575.31
2018-09-12T23:06:33.929Z,100571.59
2018-09-12T23:11:17.334Z,100566.29
2018-09-12T23:16:00.787Z,100563.22
2018-09-12T23:20:44.245Z,100562.98
2018-09-12T23:25:28.940Z,100555.83
2018-09-12T23:30:12.151Z,100557.89
2018-09-12T23:34:58.827Z,100556.68
2018-09-12T23:39:42.114Z,100569.27
2018-09-12T23:44:29.285Z,100560.61
2018-09-12T23:49:12.674Z,100555.33
2018-09-12T23:53:56.043Z,100546.78
2018-09-12T23:58:39.731Z,100552.63
